createdAt,value
2019-06-20T00:00:09.436Z,991.25
2019-06-20T00:01:09.422Z,991.15
2019-06-20T00:02:09.412Z,991.12
2019-06-20T00:03:09.403Z,991.14
2019-06-20T00:04:09.415Z,991.05
2019-06-20T00:05:09.371Z,991.10
2019-06-20T00:06:09.381Z,991.16
2019-06-20T00:07:10.825Z,991.28
2019-06-20T00:08:09.342Z,991.26
2019-06-20T00:09:09.372Z,991.22
2019-06-20T00:10:09.322Z,991.17
2019-06-20T00:11:10.763Z,991.13
2019-06-20T00:12:09.323Z,991.08
2019-06-20T00:13:09.291Z,991.05
2019-06-20T00:14:09.540Z,991.03
2019-06-20T00:15:09.294Z,991.02
2019-06-20T00:16:09.258Z,990.99
2019-06-20T00:17:09.259Z,991.04
2019-06-20T00:18:09.245Z,991.01
2019-06-20T00:19:09.269Z,990.95
2019-06-20T00:20:09.226Z,991.02
2019-06-20T00:21:09.204Z,991.02
2019-06-20T00:22:09.195Z,991.10
2019-06-20T00:23:09.206Z,991.13
2019-06-20T00:24:09.200Z,991.14
2019-06-20T00:25:09.157Z,991.13
2019-06-20T00:26:10.296Z,991.11
2019-06-20T00:27:09.147Z,991.20
2019-06-20T00:28:09.133Z,991.22
2019-06-20T00:29:09.954Z,991.24
2019-06-20T00:30:10.454Z,991.24
2019-06-20T00:31:09.792Z,991.22
2019-06-20T00:32:09.096Z,991.24
2019-06-20T00:33:09.070Z,991.23
2019-06-20T00:34:09.102Z,991.29
2019-06-20T00:35:09.051Z,991.29
2019-06-20T00:36:09.039Z,991.31
2019-06-20T00:37:09.033Z,991.37
2019-06-20T00:38:09.016Z,991.45
2019-06-20T00:39:09.020Z,991.41
2019-06-20T00:40:09.791Z,991.36
2019-06-20T00:41:08.988Z,991.35
2019-06-20T00:42:08.977Z,991.30
2019-06-20T00:43:17.378Z,991.29
2019-06-20T00:44:09.957Z,991.24
2019-06-20T00:45:08.974Z,991.25
2019-06-20T00:46:08.927Z,991.27
2019-06-20T00:47:08.926Z,991.20
2019-06-20T00:48:08.906Z,991.23
2019-06-20T00:49:08.903Z,991.32
2019-06-20T00:50:08.940Z,991.36
2019-06-20T00:51:08.893Z,991.50
2019-06-20T00:52:08.915Z,991.57
2019-06-20T00:53:08.864Z,991.63
2019-06-20T00:54:08.863Z,991.69
2019-06-20T00:55:08.872Z,991.75
2019-06-20T00:56:08.832Z,991.84
2019-06-20T00:57:09.325Z,991.88
2019-06-20T00:58:08.810Z,991.96
2019-06-20T00:59:09.721Z,991.96
2019-06-20T01:00:08.830Z,991.95
2019-06-20T01:01:08.801Z,991.86
2019-06-20T01:02:08.780Z,991.77
2019-06-20T01:03:08.759Z,991.74
2019-06-20T01:04:08.752Z,991.72
2019-06-20T01:05:08.765Z,991.64
2019-06-20T01:06:08.718Z,991.49
2019-06-20T01:07:08.708Z,991.35
2019-06-20T01:08:08.706Z,991.25
2019-06-20T01:09:09.378Z,991.14
2019-06-20T01:10:09.365Z,990.99
2019-06-20T01:11:08.666Z,990.86
2019-06-20T01:12:08.655Z,990.74
2019-06-20T01:13:08.646Z,990.68
2019-06-20T01:14:08.635Z,990.70
2019-06-20T01:15:08.656Z,990.78
2019-06-20T01:16:08.612Z,990.87
2019-06-20T01:17:08.626Z,990.94
2019-06-20T01:18:08.591Z,990.99
2019-06-20T01:19:08.579Z,991.04
2019-06-20T01:20:08.599Z,991.01
2019-06-20T01:21:08.580Z,991.02
2019-06-20T01:22:10.009Z,990.97
2019-06-20T01:23:08.546Z,991.00
2019-06-20T01:24:08.530Z,990.96
2019-06-20T01:25:08.568Z,990.94
2019-06-20T01:26:08.519Z,990.91
2019-06-20T01:27:08.489Z,990.90
2019-06-20T01:28:08.486Z,990.92
2019-06-20T01:29:08.487Z,990.93
2019-06-20T01:30:08.517Z,990.94
2019-06-20T01:31:08.459Z,990.90
2019-06-20T01:32:08.458Z,990.87
2019-06-20T01:33:08.436Z,990.88
2019-06-20T01:34:08.426Z,990.87
2019-06-20T01:35:09.302Z,990.87
2019-06-20T01:36:08.413Z,990.95
2019-06-20T01:37:08.393Z,990.92
2019-06-20T01:38:08.381Z,991.00
2019-06-20T01:39:08.372Z,990.92
2019-06-20T01:40:08.906Z,990.92
2019-06-20T01:41:08.345Z,990.96
2019-06-20T01:42:08.343Z,991.03
2019-06-20T01:43:08.333Z,991.13
2019-06-20T01:44:08.322Z,991.06
2019-06-20T01:45:08.331Z,991.05
2019-06-20T01:46:09.152Z,990.99
2019-06-20T01:47:08.891Z,991.02
2019-06-20T01:48:08.272Z,990.99
2019-06-20T01:49:08.261Z,990.98
2019-06-20T01:50:08.278Z,991.00
2019-06-20T01:51:08.273Z,991.01
2019-06-20T01:52:08.232Z,991.08
2019-06-20T01:53:08.228Z,990.99
2019-06-20T01:54:08.218Z,991.05
2019-06-20T01:55:10.338Z,990.99
2019-06-20T01:56:08.217Z,991.03
2019-06-20T01:57:08.186Z,991.07
2019-06-20T01:58:08.195Z,991.05
2019-06-20T01:59:08.211Z,991.02
2019-06-20T02:00:08.181Z,990.99
2019-06-20T02:01:08.155Z,991.08
2019-06-20T02:02:08.155Z,991.05
2019-06-20T02:03:08.116Z,991.02
2019-06-20T02:04:08.125Z,991.01
2019-06-20T02:05:08.095Z,991.03
2019-06-20T02:06:08.113Z,991.05
2019-06-20T02:07:08.071Z,991.14
2019-06-20T02:08:08.079Z,991.20
2019-06-20T02:09:08.043Z,991.26
2019-06-20T02:10:08.031Z,991.28
2019-06-20T02:11:08.062Z,991.40
2019-06-20T02:12:08.011Z,991.42
2019-06-20T02:13:08.012Z,991.45
2019-06-20T02:14:08.080Z,991.43
2019-06-20T02:15:07.994Z,991.44
2019-06-20T02:16:08.029Z,991.39
2019-06-20T02:17:07.965Z,991.46
2019-06-20T02:18:07.960Z,991.50
2019-06-20T02:19:07.939Z,991.52
2019-06-20T02:20:07.949Z,991.55
2019-06-20T02:21:07.953Z,991.45
2019-06-20T02:22:07.918Z,991.54
2019-06-20T02:23:07.916Z,991.54
2019-06-20T02:24:07.905Z,991.53
2019-06-20T02:25:07.896Z,991.48
2019-06-20T02:26:07.895Z,991.48
2019-06-20T02:27:07.855Z,991.45
2019-06-20T02:28:07.844Z,991.43
2019-06-20T02:29:08.502Z,991.41
2019-06-20T02:30:07.824Z,991.40
2019-06-20T02:31:07.862Z,991.37
2019-06-20T02:32:07.803Z,991.35
2019-06-20T02:33:07.791Z,991.38
2019-06-20T02:34:07.815Z,991.35
2019-06-20T02:35:07.779Z,991.29
2019-06-20T02:36:07.761Z,991.28
2019-06-20T02:37:07.769Z,991.29
2019-06-20T02:38:07.731Z,991.20
2019-06-20T02:39:07.749Z,991.11
2019-06-20T02:40:07.709Z,991.09
2019-06-20T02:41:08.508Z,991.05
2019-06-20T02:42:07.724Z,991.00
2019-06-20T02:43:07.685Z,991.04
2019-06-20T02:44:24.756Z,991.07
2019-06-20T02:45:08.666Z,991.14
2019-06-20T02:46:07.672Z,991.19
2019-06-20T02:47:07.724Z,991.22
2019-06-20T02:48:07.639Z,991.15
2019-06-20T02:49:07.619Z,991.16
2019-06-20T02:50:07.606Z,991.24
2019-06-20T02:51:07.595Z,991.24
2019-06-20T02:52:07.622Z,991.27
2019-06-20T02:53:07.584Z,991.24
2019-06-20T02:54:07.580Z,991.27
2019-06-20T02:55:07.561Z,991.29
2019-06-20T02:56:07.544Z,991.36
2019-06-20T02:57:07.602Z,991.44
2019-06-20T02:58:07.557Z,991.44
2019-06-20T02:59:07.512Z,991.53
2019-06-20T03:00:08.044Z,991.52
2019-06-20T03:01:07.515Z,991.51
2019-06-20T03:02:07.618Z,991.43
2019-06-20T03:03:07.576Z,991.48
2019-06-20T03:04:07.458Z,991.44
2019-06-20T03:05:07.449Z,991.48
2019-06-20T03:06:07.456Z,991.53
2019-06-20T03:07:07.457Z,991.53
2019-06-20T03:08:07.417Z,991.51
2019-06-20T03:09:07.415Z,991.52
2019-06-20T03:10:07.394Z,991.37
2019-06-20T03:11:07.430Z,991.43
2019-06-20T03:12:07.395Z,991.39
2019-06-20T03:13:09.457Z,991.44
2019-06-20T03:14:07.346Z,991.44
2019-06-20T03:15:07.337Z,991.44
2019-06-20T03:16:07.348Z,991.39
2019-06-20T03:17:07.354Z,991.38
2019-06-20T03:18:07.373Z,991.35
2019-06-20T03:19:07.293Z,991.35
2019-06-20T03:20:07.334Z,991.33
2019-06-20T03:21:07.273Z,991.37
2019-06-20T03:22:07.334Z,991.34
2019-06-20T03:23:07.260Z,991.34
2019-06-20T03:24:07.242Z,991.27
2019-06-20T03:25:07.231Z,991.27
2019-06-20T03:26:07.220Z,991.29
2019-06-20T03:27:07.260Z,991.30
2019-06-20T03:28:07.210Z,991.36
2019-06-20T03:29:07.225Z,991.30
2019-06-20T03:30:07.952Z,991.37
2019-06-20T03:31:07.179Z,991.27
2019-06-20T03:32:08.049Z,991.22
2019-06-20T03:33:07.173Z,991.24
2019-06-20T03:34:07.170Z,991.23
2019-06-20T03:35:07.127Z,991.22
2019-06-20T03:36:08.069Z,991.27
2019-06-20T03:37:07.139Z,991.26
2019-06-20T03:38:07.103Z,991.31
2019-06-20T03:39:07.083Z,991.41
2019-06-20T03:40:07.074Z,991.44
2019-06-20T03:41:07.066Z,991.47
2019-06-20T03:42:07.094Z,991.50
2019-06-20T03:43:07.994Z,991.59
2019-06-20T03:44:07.024Z,991.60
2019-06-20T03:45:07.031Z,991.64
2019-06-20T03:46:07.024Z,991.65
2019-06-20T03:47:07.034Z,991.71
2019-06-20T03:48:06.991Z,991.66
2019-06-20T03:49:06.979Z,991.67
2019-06-20T03:50:06.975Z,991.64
2019-06-20T03:51:06.957Z,991.61
2019-06-20T03:52:06.979Z,991.65
2019-06-20T03:53:06.942Z,991.63
2019-06-20T03:54:06.929Z,991.75
2019-06-20T03:55:06.917Z,991.78
2019-06-20T03:56:06.906Z,991.89
2019-06-20T03:57:06.920Z,992.00
2019-06-20T03:58:06.876Z,992.18
2019-06-20T03:59:06.878Z,992.42
2019-06-20T04:00:06.864Z,992.51
2019-06-20T04:01:06.844Z,992.81
2019-06-20T04:02:06.835Z,992.86
2019-06-20T04:03:06.893Z,992.90
2019-06-20T04:04:06.813Z,992.88
2019-06-20T04:05:06.817Z,993.04
2019-06-20T04:06:06.817Z,993.13
2019-06-20T04:07:07.633Z,993.18
2019-06-20T04:08:06.848Z,993.40
2019-06-20T04:09:06.761Z,993.38
2019-06-20T04:10:06.807Z,993.64
2019-06-20T04:11:06.734Z,993.49
2019-06-20T04:12:06.729Z,993.60
2019-06-20T04:13:06.742Z,993.59
2019-06-20T04:14:06.710Z,993.57
2019-06-20T04:15:18.447Z,993.68
2019-06-20T04:16:08.277Z,993.63
2019-06-20T04:17:06.686Z,993.64
2019-06-20T04:18:06.704Z,993.62
2019-06-20T04:19:06.691Z,993.62
2019-06-20T04:20:06.664Z,993.56
2019-06-20T04:21:06.658Z,993.57
2019-06-20T04:22:06.631Z,993.49
2019-06-20T04:23:06.635Z,993.50
2019-06-20T04:24:06.595Z,993.47
2019-06-20T04:25:06.628Z,993.51
2019-06-20T04:26:06.590Z,993.50
2019-06-20T04:27:06.579Z,993.57
2019-06-20T04:28:06.593Z,993.60
2019-06-20T04:29:06.569Z,993.59
2019-06-20T04:30:06.694Z,993.52
2019-06-20T04:31:07.124Z,993.50
2019-06-20T04:32:06.560Z,993.41
2019-06-20T04:33:06.531Z,993.36
2019-06-20T04:34:07.223Z,993.35
2019-06-20T04:35:06.508Z,993.37
2019-06-20T04:36:06.471Z,993.33
2019-06-20T04:37:06.457Z,993.28
2019-06-20T04:38:06.908Z,993.27
2019-06-20T04:39:18.662Z,993.20
2019-06-20T04:40:07.437Z,993.20
2019-06-20T04:41:06.409Z,993.20
2019-06-20T04:42:06.407Z,993.16
2019-06-20T04:43:06.425Z,993.19
2019-06-20T04:44:06.386Z,993.16
2019-06-20T04:45:06.376Z,993.14
2019-06-20T04:46:06.367Z,993.13
2019-06-20T04:47:07.255Z,993.19
2019-06-20T04:48:06.376Z,993.21
2019-06-20T04:49:06.328Z,993.20
2019-06-20T04:50:07.216Z,993.17
2019-06-20T04:51:06.304Z,993.20
2019-06-20T04:52:06.308Z,993.17
2019-06-20T04:53:06.314Z,993.23
2019-06-20T04:54:06.285Z,993.20
2019-06-20T04:55:06.288Z,993.21
2019-06-20T04:56:06.278Z,993.14
2019-06-20T04:57:06.246Z,993.16
2019-06-20T04:58:06.281Z,993.17
2019-06-20T04:59:06.781Z,993.15
2019-06-20T05:00:06.220Z,993.15
2019-06-20T05:01:06.211Z,993.11
2019-06-20T05:02:06.230Z,993.12
2019-06-20T05:03:06.219Z,993.06
2019-06-20T05:04:06.181Z,993.09
2019-06-20T05:05:06.171Z,993.12
2019-06-20T05:06:06.170Z,993.15
2019-06-20T05:07:06.138Z,993.17
2019-06-20T05:08:06.581Z,993.11
2019-06-20T05:09:06.137Z,993.10
2019-06-20T05:10:06.117Z,993.13
2019-06-20T05:11:06.095Z,993.05
2019-06-20T05:12:06.095Z,993.09
2019-06-20T05:13:06.080Z,993.05
2019-06-20T05:14:06.093Z,993.03
2019-06-20T05:15:06.046Z,992.93
2019-06-20T05:16:06.082Z,992.98
2019-06-20T05:17:07.253Z,992.93
2019-06-20T05:18:06.024Z,992.92
2019-06-20T05:19:06.042Z,992.91
2019-06-20T05:20:06.002Z,992.81
2019-06-20T05:21:05.993Z,992.79
2019-06-20T05:22:05.980Z,992.73
2019-06-20T05:23:05.975Z,992.68
2019-06-20T05:24:06.000Z,992.71
2019-06-20T05:25:06.827Z,992.74
2019-06-20T05:26:05.939Z,992.73
2019-06-20T05:27:05.936Z,992.74
2019-06-20T05:28:05.909Z,992.73
2019-06-20T05:29:05.939Z,992.74
2019-06-20T05:30:05.898Z,992.72
2019-06-20T05:31:05.909Z,992.74
2019-06-20T05:32:05.876Z,992.71
2019-06-20T05:33:05.889Z,992.68
2019-06-20T05:34:05.892Z,992.74
2019-06-20T05:35:05.844Z,992.74
2019-06-20T05:36:05.826Z,992.75
2019-06-20T05:37:06.736Z,992.75
2019-06-20T05:38:05.838Z,992.73
2019-06-20T05:39:05.844Z,992.69
2019-06-20T05:40:05.793Z,992.65
2019-06-20T05:41:05.831Z,992.71
2019-06-20T05:42:05.770Z,992.68
2019-06-20T05:43:05.774Z,992.69
2019-06-20T05:44:05.784Z,992.67
2019-06-20T05:45:05.742Z,992.68
2019-06-20T05:46:10.773Z,992.67
2019-06-20T05:47:12.606Z,992.72
2019-06-20T05:48:07.622Z,992.68
2019-06-20T05:49:05.739Z,992.67
2019-06-20T05:50:05.679Z,992.64
2019-06-20T05:51:06.362Z,992.63
2019-06-20T05:52:05.676Z,992.59
2019-06-20T05:53:05.990Z,992.68
2019-06-20T05:54:05.675Z,992.76
2019-06-20T05:55:05.864Z,992.73
2019-06-20T05:56:05.616Z,992.74
2019-06-20T05:57:05.607Z,992.82
2019-06-20T05:58:05.590Z,992.73
2019-06-20T05:59:05.619Z,992.74
2019-06-20T06:00:05.598Z,992.74
2019-06-20T06:01:05.563Z,992.77
2019-06-20T06:02:05.554Z,992.76
2019-06-20T06:03:07.272Z,992.66
2019-06-20T06:04:05.574Z,992.67
2019-06-20T06:05:05.540Z,992.58
2019-06-20T06:06:05.510Z,992.53
2019-06-20T06:07:05.502Z,992.46
2019-06-20T06:08:06.823Z,992.47
2019-06-20T06:09:05.502Z,992.42
2019-06-20T06:10:05.638Z,992.40
2019-06-20T06:11:05.451Z,992.42
2019-06-20T06:12:06.000Z,992.35
2019-06-20T06:13:05.444Z,992.36
2019-06-20T06:14:05.450Z,992.31
2019-06-20T06:15:07.344Z,992.36
2019-06-20T06:16:05.437Z,992.34
2019-06-20T06:17:05.397Z,992.45
2019-06-20T06:18:05.400Z,992.45
2019-06-20T06:19:05.408Z,992.54
2019-06-20T06:20:05.367Z,992.53
2019-06-20T06:21:05.367Z,992.53
2019-06-20T06:22:05.368Z,992.56
2019-06-20T06:23:05.853Z,992.61
2019-06-20T06:24:05.394Z,992.64
2019-06-20T06:25:05.366Z,992.64
2019-06-20T06:26:05.848Z,992.70
2019-06-20T06:27:05.296Z,992.72
2019-06-20T06:28:05.314Z,992.74
2019-06-20T06:29:05.280Z,992.76
2019-06-20T06:30:06.074Z,992.74
2019-06-20T06:31:05.280Z,992.80
2019-06-20T06:32:05.232Z,992.87
2019-06-20T06:33:05.223Z,992.86
2019-06-20T06:34:05.213Z,992.91
2019-06-20T06:35:05.237Z,992.85
2019-06-20T06:36:05.214Z,992.86
2019-06-20T06:37:05.176Z,992.80
2019-06-20T06:38:05.189Z,992.83
2019-06-20T06:39:05.150Z,992.91
2019-06-20T06:40:05.168Z,992.87
2019-06-20T06:41:05.138Z,992.89
2019-06-20T06:42:05.131Z,992.91
2019-06-20T06:43:06.069Z,993.00
2019-06-20T06:44:07.614Z,993.02
2019-06-20T06:45:06.068Z,993.04
2019-06-20T06:46:06.070Z,993.06
2019-06-20T06:47:05.088Z,993.07
2019-06-20T06:48:05.063Z,993.05
2019-06-20T06:49:05.053Z,993.05
2019-06-20T06:50:05.085Z,993.00
2019-06-20T06:51:05.025Z,993.08
2019-06-20T06:52:05.023Z,993.06
2019-06-20T06:53:05.013Z,993.02
2019-06-20T06:54:05.043Z,993.05
2019-06-20T06:55:05.012Z,993.00
2019-06-20T06:56:04.980Z,993.07
2019-06-20T06:57:04.985Z,993.02
2019-06-20T06:58:05.019Z,992.99
2019-06-20T06:59:04.942Z,993.03
2019-06-20T07:00:04.971Z,992.99
2019-06-20T07:01:05.563Z,993.03
2019-06-20T07:02:04.923Z,992.96
2019-06-20T07:03:04.910Z,993.02
2019-06-20T07:04:04.899Z,993.12
2019-06-20T07:05:05.028Z,993.02
2019-06-20T07:06:04.877Z,993.02
2019-06-20T07:07:04.862Z,993.00
2019-06-20T07:08:05.717Z,992.94
2019-06-20T07:09:04.837Z,992.97
2019-06-20T07:10:05.565Z,992.90
2019-06-20T07:11:04.862Z,992.97
2019-06-20T07:12:04.821Z,992.93
2019-06-20T07:13:04.797Z,992.92
2019-06-20T07:14:04.805Z,992.95
2019-06-20T07:15:04.838Z,992.96
2019-06-20T07:16:05.553Z,992.91
2019-06-20T07:17:04.766Z,992.95
2019-06-20T07:18:05.622Z,992.89
2019-06-20T07:19:05.563Z,992.86
2019-06-20T07:20:05.554Z,992.88
2019-06-20T07:21:04.703Z,992.84
2019-06-20T07:22:04.701Z,992.96
2019-06-20T07:23:04.715Z,992.86
2019-06-20T07:24:04.710Z,992.84
2019-06-20T07:25:04.700Z,992.90
2019-06-20T07:26:04.662Z,992.87
2019-06-20T07:27:04.661Z,992.82
2019-06-20T07:28:04.638Z,992.88
2019-06-20T07:29:04.630Z,992.87
2019-06-20T07:30:04.703Z,992.85
2019-06-20T07:31:04.683Z,992.89
2019-06-20T07:32:04.660Z,992.87
2019-06-20T07:33:04.587Z,992.84
2019-06-20T07:34:04.575Z,992.82
2019-06-20T07:35:04.598Z,992.83
2019-06-20T07:36:04.554Z,992.82
2019-06-20T07:37:04.536Z,992.84
2019-06-20T07:38:04.536Z,992.71
2019-06-20T07:39:04.535Z,992.78
2019-06-20T07:40:04.515Z,992.69
2019-06-20T07:41:04.553Z,992.76
2019-06-20T07:42:04.493Z,992.78
2019-06-20T07:43:04.473Z,992.80
2019-06-20T07:44:04.465Z,992.70
2019-06-20T07:45:05.282Z,992.78
2019-06-20T07:46:05.279Z,992.76
2019-06-20T07:47:17.095Z,992.76
2019-06-20T07:48:05.420Z,992.77
2019-06-20T07:49:05.300Z,992.77
2019-06-20T07:50:04.447Z,992.81
2019-06-20T07:51:04.446Z,992.75
2019-06-20T07:52:04.400Z,992.76
2019-06-20T07:53:04.420Z,992.76
2019-06-20T07:54:05.250Z,992.78
2019-06-20T07:55:04.394Z,992.78
2019-06-20T07:56:04.862Z,992.75
2019-06-20T07:57:04.340Z,992.79
2019-06-20T07:58:04.321Z,992.74
2019-06-20T07:59:05.131Z,992.78
2019-06-20T08:00:04.301Z,992.78
2019-06-20T08:01:04.318Z,992.79
2019-06-20T08:02:04.296Z,992.79
2019-06-20T08:03:04.266Z,992.83
2019-06-20T08:04:04.256Z,992.80
2019-06-20T08:05:04.245Z,992.81
2019-06-20T08:06:04.280Z,992.80
2019-06-20T08:07:04.224Z,992.78
2019-06-20T08:08:04.223Z,992.84
2019-06-20T08:09:04.747Z,992.79
2019-06-20T08:10:04.389Z,992.81
2019-06-20T08:11:04.214Z,992.90
2019-06-20T08:12:04.183Z,992.87
2019-06-20T08:13:04.166Z,992.91
2019-06-20T08:14:04.147Z,992.88
2019-06-20T08:15:14.465Z,992.79
2019-06-20T08:16:05.171Z,992.81
2019-06-20T08:17:04.161Z,992.77
2019-06-20T08:18:04.106Z,992.85
2019-06-20T08:19:04.131Z,992.74
2019-06-20T08:20:04.091Z,992.76
2019-06-20T08:21:04.459Z,992.75
2019-06-20T08:22:04.751Z,992.71
2019-06-20T08:23:04.069Z,992.71
2019-06-20T08:24:04.087Z,992.78
2019-06-20T08:25:05.285Z,992.71
2019-06-20T08:26:04.554Z,992.78
2019-06-20T08:27:04.920Z,992.71
2019-06-20T08:28:04.370Z,992.73
2019-06-20T08:29:14.937Z,992.72
2019-06-20T08:30:05.227Z,992.84
2019-06-20T08:31:04.821Z,992.79
2019-06-20T08:32:04.725Z,992.73
2019-06-20T08:33:09.653Z,992.71
2019-06-20T08:34:04.984Z,992.75
2019-06-20T08:35:04.727Z,992.78
2019-06-20T08:36:04.570Z,992.78
2019-06-20T08:37:04.388Z,992.77
2019-06-20T08:38:05.591Z,992.76
2019-06-20T08:39:04.495Z,992.77
2019-06-20T08:40:04.230Z,992.79
2019-06-20T08:41:04.613Z,992.72
2019-06-20T08:42:04.330Z,992.84
2019-06-20T08:43:04.198Z,992.82
2019-06-20T08:44:03.967Z,992.80
2019-06-20T08:45:06.050Z,992.78
2019-06-20T08:46:04.529Z,992.76
2019-06-20T08:47:03.947Z,992.80
2019-06-20T08:48:04.735Z,992.83
2019-06-20T08:49:03.780Z,992.79
2019-06-20T08:50:03.929Z,992.82
2019-06-20T08:51:04.521Z,992.85
2019-06-20T08:52:03.768Z,992.88
2019-06-20T08:53:03.778Z,992.92
2019-06-20T08:54:03.730Z,992.85
2019-06-20T08:55:03.755Z,992.92
2019-06-20T08:56:05.423Z,992.90
2019-06-20T08:57:05.727Z,992.92
2019-06-20T08:58:05.449Z,992.91
2019-06-20T08:59:04.781Z,992.88
2019-06-20T09:04:03.633Z,992.94
2019-06-20T09:09:04.477Z,993.09
2019-06-20T09:10:04.254Z,993.00
2019-06-20T09:11:04.062Z,993.02
2019-06-20T09:12:05.002Z,992.98
2019-06-20T09:13:03.828Z,993.04
2019-06-20T09:14:04.095Z,992.99
2019-06-20T09:15:04.342Z,992.94
2019-06-20T09:16:03.501Z,993.03
2019-06-20T09:17:03.521Z,992.98
2019-06-20T09:18:03.530Z,993.01
2019-06-20T09:19:03.459Z,992.94
2019-06-20T09:20:03.457Z,992.99
2019-06-20T09:21:03.454Z,993.02
2019-06-20T09:22:05.026Z,993.03
2019-06-20T09:23:03.428Z,992.96
2019-06-20T09:24:04.181Z,993.00
2019-06-20T09:25:03.418Z,993.08
2019-06-20T09:26:03.891Z,993.02
2019-06-20T09:27:04.273Z,993.11
2019-06-20T09:28:03.375Z,993.08
2019-06-20T09:29:04.147Z,993.12
2019-06-20T09:30:03.608Z,993.12
2019-06-20T09:31:04.125Z,993.15
2019-06-20T09:32:04.649Z,993.20
2019-06-20T09:33:04.281Z,993.23
2019-06-20T09:34:05.301Z,993.19
2019-06-20T09:35:03.292Z,993.14
2019-06-20T09:36:04.012Z,993.10
2019-06-20T09:37:04.037Z,993.19
2019-06-20T09:38:03.508Z,993.12
2019-06-20T09:39:03.797Z,993.13
2019-06-20T09:40:03.652Z,993.13
2019-06-20T09:41:03.487Z,993.12
2019-06-20T09:42:03.476Z,993.08
2019-06-20T09:43:03.292Z,993.13
2019-06-20T09:44:03.241Z,993.14
2019-06-20T09:45:03.196Z,993.11
2019-06-20T09:46:03.191Z,993.16
2019-06-20T09:47:03.199Z,993.17
2019-06-20T09:48:03.159Z,993.11
2019-06-20T09:49:03.149Z,993.16
2019-06-20T09:50:03.150Z,993.19
2019-06-20T09:51:03.129Z,993.21
2019-06-20T09:52:03.149Z,993.17
2019-06-20T09:53:03.106Z,993.17
2019-06-20T09:54:03.090Z,993.20
2019-06-20T09:55:03.105Z,993.17
2019-06-20T09:56:03.177Z,993.14
2019-06-20T09:57:03.101Z,993.20
2019-06-20T09:58:03.054Z,993.21
2019-06-20T09:59:04.027Z,993.23
2019-06-20T10:00:10.008Z,993.25
2019-06-20T10:01:04.036Z,993.27
2019-06-20T10:02:03.014Z,993.29
2019-06-20T10:03:03.117Z,993.21
2019-06-20T10:04:03.037Z,993.25
2019-06-20T10:05:02.977Z,993.22
2019-06-20T10:06:13.474Z,993.26
2019-06-20T10:07:03.963Z,993.27
2019-06-20T10:08:02.976Z,993.25
2019-06-20T10:09:02.943Z,993.26
2019-06-20T10:10:02.924Z,993.29
2019-06-20T10:11:03.544Z,993.27
2019-06-20T10:12:02.929Z,993.28
2019-06-20T10:13:02.933Z,993.22
2019-06-20T10:14:02.886Z,993.27
2019-06-20T10:15:02.948Z,993.28
2019-06-20T10:16:02.961Z,993.22
2019-06-20T10:17:02.842Z,993.19
2019-06-20T10:18:02.860Z,993.25
2019-06-20T10:19:02.829Z,993.25
2019-06-20T10:20:02.883Z,993.20
2019-06-20T10:21:02.868Z,993.22
2019-06-20T10:22:02.799Z,993.14
2019-06-20T10:23:03.546Z,993.11
2019-06-20T10:24:02.809Z,993.11
2019-06-20T10:25:02.765Z,993.15
2019-06-20T10:26:02.757Z,993.12
2019-06-20T10:27:02.741Z,993.16
2019-06-20T10:28:02.813Z,993.16
2019-06-20T10:29:02.805Z,993.15
2019-06-20T10:30:13.811Z,993.15
2019-06-20T10:31:03.707Z,993.11
2019-06-20T10:32:02.692Z,993.18
2019-06-20T10:33:02.713Z,993.14
2019-06-20T10:34:02.695Z,993.14
2019-06-20T10:35:03.935Z,993.16
2019-06-20T10:36:02.654Z,993.17
2019-06-20T10:37:03.500Z,993.15
2019-06-20T10:38:02.692Z,993.16
2019-06-20T10:39:02.615Z,993.13
2019-06-20T10:40:02.688Z,993.15
2019-06-20T10:41:02.602Z,993.20
2019-06-20T10:42:02.606Z,993.13
2019-06-20T10:43:02.605Z,993.20
2019-06-20T10:44:02.560Z,993.18
2019-06-20T10:45:02.551Z,993.22
2019-06-20T10:46:02.585Z,993.21
2019-06-20T10:47:02.710Z,993.20
2019-06-20T10:48:09.564Z,993.18
2019-06-20T10:49:02.503Z,993.21
2019-06-20T10:50:02.521Z,993.25
2019-06-20T10:51:02.555Z,993.21
2019-06-20T10:52:02.474Z,993.21
2019-06-20T10:53:02.496Z,993.31
2019-06-20T10:54:02.496Z,993.27
2019-06-20T10:55:02.445Z,993.24
2019-06-20T10:56:02.522Z,993.28
2019-06-20T10:57:02.431Z,993.31
2019-06-20T10:58:03.241Z,993.29
2019-06-20T10:59:02.422Z,993.31
2019-06-20T11:00:02.429Z,993.31
2019-06-20T11:01:02.374Z,993.28
2019-06-20T11:02:02.363Z,993.28
2019-06-20T11:03:02.351Z,993.29
2019-06-20T11:04:02.432Z,993.34
2019-06-20T11:05:02.332Z,993.42
2019-06-20T11:06:02.368Z,993.43
2019-06-20T11:07:02.316Z,993.40
2019-06-20T11:08:02.310Z,993.39
2019-06-20T11:09:03.230Z,993.46
2019-06-20T11:10:02.286Z,993.33
2019-06-20T11:11:02.276Z,993.35
2019-06-20T11:12:02.267Z,993.32
2019-06-20T11:13:02.248Z,993.34
2019-06-20T11:14:02.268Z,993.31
2019-06-20T11:15:02.245Z,993.33
2019-06-20T11:16:02.216Z,993.39
2019-06-20T11:17:02.751Z,993.34
2019-06-20T11:18:02.465Z,993.34
2019-06-20T11:19:02.215Z,993.33
2019-06-20T11:20:03.071Z,993.37
2019-06-20T11:21:02.212Z,993.38
2019-06-20T11:22:02.239Z,993.35
2019-06-20T11:23:02.275Z,993.33
2019-06-20T11:24:02.781Z,993.37
2019-06-20T11:25:02.122Z,993.37
2019-06-20T11:26:02.118Z,993.40
2019-06-20T11:27:02.103Z,993.40
2019-06-20T11:28:02.099Z,993.42
2019-06-20T11:29:02.111Z,993.40
2019-06-20T11:30:02.071Z,993.37
2019-06-20T11:31:02.062Z,993.42
2019-06-20T11:32:02.061Z,993.34
2019-06-20T11:33:02.065Z,993.29
2019-06-20T11:34:02.062Z,993.33
2019-06-20T11:35:02.020Z,993.24
2019-06-20T11:36:02.082Z,993.29
2019-06-20T11:37:02.008Z,993.29
2019-06-20T11:38:01.996Z,993.25
2019-06-20T11:39:02.069Z,993.31
2019-06-20T11:40:02.007Z,993.28
2019-06-20T11:41:01.969Z,993.21
2019-06-20T11:42:01.985Z,993.28
2019-06-20T11:43:01.942Z,993.28
2019-06-20T11:44:02.005Z,993.27
2019-06-20T11:45:01.947Z,993.29
2019-06-20T11:46:01.908Z,993.21
2019-06-20T11:47:01.896Z,993.16
2019-06-20T11:48:01.928Z,993.22
2019-06-20T11:49:01.883Z,993.24
2019-06-20T11:50:01.987Z,993.29
2019-06-20T11:51:01.902Z,993.41
2019-06-20T11:52:02.769Z,993.38
2019-06-20T11:53:01.872Z,993.42
2019-06-20T11:54:01.824Z,993.41
2019-06-20T11:55:01.915Z,993.44
2019-06-20T11:56:02.451Z,993.44
2019-06-20T11:57:01.795Z,993.43
2019-06-20T11:58:01.784Z,993.44
2019-06-20T11:59:01.772Z,993.47
2019-06-20T12:00:01.793Z,993.48
2019-06-20T12:01:03.886Z,993.52
2019-06-20T12:02:01.753Z,993.52
2019-06-20T12:03:01.732Z,993.43
2019-06-20T12:04:01.722Z,993.48
2019-06-20T12:05:01.758Z,993.50
2019-06-20T12:06:01.708Z,993.40
2019-06-20T12:07:01.690Z,993.37
2019-06-20T12:08:02.392Z,993.46
2019-06-20T12:09:02.401Z,993.47
2019-06-20T12:10:01.690Z,993.48
2019-06-20T12:11:01.676Z,993.43
2019-06-20T12:12:01.636Z,993.36
2019-06-20T12:13:01.641Z,993.31
2019-06-20T12:14:01.620Z,993.32
2019-06-20T12:15:01.630Z,993.36
2019-06-20T12:16:01.588Z,993.25
2019-06-20T12:17:01.588Z,993.28
2019-06-20T12:18:01.582Z,993.23
2019-06-20T12:19:01.574Z,993.22
2019-06-20T12:20:01.611Z,993.27
2019-06-20T12:21:01.546Z,993.21
2019-06-20T12:22:01.534Z,993.12
2019-06-20T12:23:01.528Z,993.19
2019-06-20T12:24:01.516Z,993.03
2019-06-20T12:25:01.525Z,993.09
2019-06-20T12:26:01.496Z,993.12
2019-06-20T12:27:02.454Z,993.11
2019-06-20T12:28:01.509Z,993.17
2019-06-20T12:29:01.462Z,993.23
2019-06-20T12:30:02.305Z,993.15
2019-06-20T12:31:01.469Z,993.15
2019-06-20T12:32:01.423Z,993.20
2019-06-20T12:33:01.595Z,993.15
2019-06-20T12:34:01.411Z,993.16
2019-06-20T12:35:01.433Z,993.18
2019-06-20T12:36:01.449Z,993.21